This is the latest recevied weather packets stored in our database for station/object K9MJM-1. If no packets are shown the sender has not sent any weather packets the latest 10 day(s).
| Time | Temp. | Humidity | Pressure | Rain* | Wind** | Luminosity | Snow |
|---|---|---|---|---|---|---|---|
| 1777577799 | 13.89° C | 54% | 1015.3 hPa | 0 mm | 0.89 m/s, 60° | - | - |
| 1777577739 | 13.89° C | 56% | 1015.3 hPa | 0 mm | 0.45 m/s, 38° | - | - |
| 1777577679 | 13.89° C | 56% | 1015.3 hPa | 0 mm | 0.45 m/s, 38° | - | - |
| 1777577619 | 13.89° C | 56% | 1015.3 hPa | 0 mm | 0.45 m/s, 38° | - | - |
| 1777577559 | 13.89° C | 56% | 1015.3 hPa | 0 mm | 0.45 m/s, 38° | - | - |
| 1777577499 | 13.89° C | 56% | 1015.3 hPa | 0 mm | 0.45 m/s, 38° | - | - |
| 1777577439 | 13.89° C | 54% | 1015.3 hPa | 0 mm | 0.89 m/s, 93° | - | - |
| 1777577379 | 13.89° C | 54% | 1015.3 hPa | 0 mm | 0.89 m/s, 93° | - | - |
| 1777577319 | 13.89° C | 54% | 1015.3 hPa | 0 mm | 0.89 m/s, 93° | - | - |
| 1777577259 | 13.89° C | 54% | 1015.3 hPa | 0 mm | 0.89 m/s, 93° | - | - |
| 1777577199 | 13.89° C | 54% | 1015.3 hPa | 0 mm | 0.89 m/s, 93° | - | - |
| 1777577139 | 15° C | 51% | 1015.6 hPa | 0 mm | 0.89 m/s, 61° | - | - |
| 1777577079 | 15° C | 51% | 1015.6 hPa | 0 mm | 0.89 m/s, 61° | - | - |
| 1777577019 | 15° C | 51% | 1015.6 hPa | 0 mm | 0.89 m/s, 61° | - | - |
| 1777576963 | 15° C | 51% | 1015.6 hPa | 0 mm | 0.89 m/s, 61° | - | - |
| 1777576839 | 15° C | 50% | 1015.2 hPa | 0 mm | 0.45 m/s, 351° | - | - |
| 1777576779 | 15° C | 50% | 1015.2 hPa | 0 mm | 0.45 m/s, 351° | - | - |
| 1777576719 | 15° C | 50% | 1015.2 hPa | 0 mm | 0.45 m/s, 351° | - | - |
| 1777576659 | 15° C | 50% | 1015.2 hPa | 0 mm | 0.45 m/s, 351° | - | - |
| 1777576599 | 15° C | 50% | 1015.2 hPa | 0 mm | 0.45 m/s, 351° | - | - |
| 1777576539 | 14.44° C | 53% | 1015.1 hPa | 0 mm | 0.89 m/s, 104° | - | - |
| 1777576479 | 14.44° C | 53% | 1015.1 hPa | 0 mm | 0.89 m/s, 104° | - | - |
| 1777576420 | 14.44° C | 53% | 1015.1 hPa | 0 mm | 0.89 m/s, 104° | - | - |
| 1777576359 | 14.44° C | 53% | 1015.1 hPa | 0 mm | 0.89 m/s, 104° | - | - |
| 1777576299 | 14.44° C | 53% | 1015.1 hPa | 0 mm | 0.89 m/s, 104° | - | - |
* Rain latest hour (hover to see other rain measurements)
** Current wind speed in m/s (hover to see current wind gust speed)